Whiteville, NC

12:52 PM EDT on July 24, 2014 (GMT -0400)
Elizabethtown (KEYF) Elev 131 ft | 34.60 °N, 78.58 °W | Change Station

Current weather conditions updated 17 minutes ago

Mostly Cloudy
Mostly Cloudy
90 °F
Feels Like 98 °F
N
13
Wind Variable Wind from SW
Gusts 17 mph

Today is forecast to be nearly the same temperature as yesterday. Scattered thunderstorms.

Today
High -- | Low -- °F
--% Chance of Precip.
Yesterday
High -- | Low -- °F
Precip. -- in
6:19 AM 8:22 PM
Waning Crescent, 5% visible
Pressure 29.90 in
Visibility 10.0 miles
Clouds Scattered Clouds 3500 ft
Mostly Cloudy 4200 ft
Heat Index 98 °F
Dew Point 73 °F
Humidity 56%
Rainfall 0.00 in
Snow Depth Not available.
UV 6 out of 12
Pollen 3.50 out of 12
Air Quality Not available.
Flu Activity Not available.
METAR KEYF 241635Z AUTO 23011G15KT 10SM SCT035 BKN042 32/23 A2990 RMK AO2 T03230226

More Conditions Fewer Conditions

Pressure 29.90 in
Visibility 10.0 miles
Clouds Scattered Clouds 3500 ft
Mostly Cloudy 4200 ft
Heat Index 98 °F
Dew Point 73 °F
Humidity 56%
Rainfall 0.00 in
Snow Depth Not available.
UV 6 out of 12
Pollen 3.50 out of 12
Air Quality Not available.
Flu Activity Not available.
METAR KEYF 241635Z AUTO 23011G15KT 10SM SCT035 BKN042 32/23 A2990 RMK AO2 T03230226

More Conditions Fewer Conditions

10-Day Weather Forecast

Almanac

Astronomy

Jul. 24, 2014 Rise Set
Actual Time 6:19 AM EDT 8:22 PM EDT
Civil Twilight 5:51 AM EDT 8:50 PM EDT
Nautical Twilight 5:17 AM EDT 9:24 PM EDT
Astronomical Twilight 4:40 AM EDT 10:01 PM EDT
Moon 4:25 AM EDT 6:37 PM EDT
Length of Visible Light 14h 58m
Length of Day
14h 02m
Tomorrow will be 1m 24s shorter.
Waning Crescent, 5% of the Moon is Illuminated
Today
Waning Crescent
Jul 26
New
Aug 3
First Quarter
Aug 10
Full
Aug 17
Last Quarter

Today's Extremes

State Highs State Lows

Community

WunderPhotos

Upload Photos

1,737,062 photos uploaded!

Nearby

Snow Depth

Station Depth Elevation
No new snow has been reported.

Earthquake Activity

City Distance Mag. Time & Date
No recent earthquake activity has been reported nearby.
Minimum magnitude displayed is 2.5.

Coastal Water Temperatures

Place Temperature
No Stations Reporting

Nearby Weather Stations

Station Location Temp. Heat Index Dew Point Humidity Wind Precip. Elev Updated Type
CCSkywatch, Whiteville, NC 89.7 °F 101 °F 75 °F 63% WSW  at  5.0 mph 0.00 in / hr 91 ft 12:52 PM EDT Rapid Fire
Henry Cannon Smith Farm, Nakina, NC 90.9 °F 104 °F 77 °F 64% WSW  at  9.0 mph 0.00 in / hr 0 ft 12:37 PM EDT Normal
The Farm at Fox Bay, Loris, SC 89.9 °F 103 °F 77 °F 66% South  at  13.8 mph 0.00 in / hr 108 ft 12:52 PM EDT Rapid Fire
RL Fogle, Nichols, SC 89.5 °F 104 °F 78 °F 70% SE  at  1.0 mph 0.00 in / hr 75 ft 12:52 PM EDT Rapid Fire
HWY 9 BUS. WEST., Loris, SC 89.0 °F 104 °F 79 °F 72% SSW  at  0.0 mph 0.00 in / hr 99 ft 12:52 PM EDT Rapid Fire
Sweet Home, Loris, SC 90.3 °F 105 °F 78 °F 68% WNW  at  2.0 mph 0.00 in / hr 35 ft 12:48 PM EDT Normal

Show More Stations Show Fewer Stations